sensor_id;sensor_type;location;lat;lon;timestamp;P1;durP1;ratioP1;P2;durP2;ratioP2
20721;SDS011;10522;52.198;9.890;2023-03-11T00:00:15;18.33;;;10.50;;
20721;SDS011;10522;52.198;9.890;2023-03-11T00:02:46;22.60;;;13.13;;
20721;SDS011;10522;52.198;9.890;2023-03-11T00:05:17;19.60;;;10.40;;
20721;SDS011;10522;52.198;9.890;2023-03-11T00:07:53;20.33;;;12.23;;
20721;SDS011;10522;52.198;9.890;2023-03-11T00:10:21;19.73;;;11.93;;
20721;SDS011;10522;52.198;9.890;2023-03-11T00:12:48;16.97;;;10.20;;
20721;SDS011;10522;52.198;9.890;2023-03-11T00:15:13;16.17;;;9.93;;
20721;SDS011;10522;52.198;9.890;2023-03-11T00:17:39;20.60;;;8.53;;
20721;SDS011;10522;52.198;9.890;2023-03-11T00:20:05;18.33;;;10.37;;
20721;SDS011;10522;52.198;9.890;2023-03-11T00:22:38;18.10;;;9.10;;
20721;SDS011;10522;52.198;9.890;2023-03-11T00:25:04;15.97;;;10.10;;
20721;SDS011;10522;52.198;9.890;2023-03-11T00:27:30;13.10;;;8.23;;
20721;SDS011;10522;52.198;9.890;2023-03-11T00:29:55;16.00;;;8.60;;
20721;SDS011;10522;52.198;9.890;2023-03-11T00:32:21;15.73;;;8.47;;
20721;SDS011;10522;52.198;9.890;2023-03-11T00:34:46;12.87;;;7.27;;
20721;SDS011;10522;52.198;9.890;2023-03-11T00:37:12;16.57;;;8.13;;
20721;SDS011;10522;52.198;9.890;2023-03-11T00:39:37;12.07;;;7.70;;
20721;SDS011;10522;52.198;9.890;2023-03-11T00:42:03;11.50;;;6.43;;
20721;SDS011;10522;52.198;9.890;2023-03-11T00:44:29;12.37;;;7.30;;
20721;SDS011;10522;52.198;9.890;2023-03-11T00:46:54;15.97;;;9.27;;
20721;SDS011;10522;52.198;9.890;2023-03-11T00:49:20;11.83;;;7.43;;
20721;SDS011;10522;52.198;9.890;2023-03-11T00:51:45;12.77;;;7.30;;
20721;SDS011;10522;52.198;9.890;2023-03-11T00:54:11;12.80;;;6.77;;
20721;SDS011;10522;52.198;9.890;2023-03-11T00:56:37;15.63;;;8.03;;
20721;SDS011;10522;52.198;9.890;2023-03-11T00:59:02;11.40;;;6.60;;
20721;SDS011;10522;52.198;9.890;2023-03-11T01:01:28;11.87;;;7.70;;
20721;SDS011;10522;52.198;9.890;2023-03-11T01:03:53;9.50;;;6.07;;
20721;SDS011;10522;52.198;9.890;2023-03-11T01:06:19;11.90;;;7.47;;
20721;SDS011;10522;52.198;9.890;2023-03-11T01:08:45;12.03;;;5.93;;
20721;SDS011;10522;52.198;9.890;2023-03-11T01:11:10;13.43;;;7.57;;
20721;SDS011;10522;52.198;9.890;2023-03-11T01:13:37;12.07;;;6.77;;
20721;SDS011;10522;52.198;9.890;2023-03-11T01:16:04;11.40;;;5.37;;
20721;SDS011;10522;52.198;9.890;2023-03-11T01:18:31;7.20;;;3.63;;
20721;SDS011;10522;52.198;9.890;2023-03-11T01:20:57;5.67;;;3.43;;
20721;SDS011;10522;52.198;9.890;2023-03-11T01:23:23;7.23;;;3.90;;
20721;SDS011;10522;52.198;9.890;2023-03-11T01:25:49;4.70;;;3.03;;
20721;SDS011;10522;52.198;9.890;2023-03-11T01:28:15;4.80;;;3.17;;
20721;SDS011;10522;52.198;9.890;2023-03-11T01:30:41;6.43;;;3.70;;
20721;SDS011;10522;52.198;9.890;2023-03-11T01:33:09;6.17;;;3.50;;
20721;SDS011;10522;52.198;9.890;2023-03-11T01:35:39;4.97;;;2.63;;
20721;SDS011;10522;52.198;9.890;2023-03-11T01:38:06;3.50;;;2.77;;
20721;SDS011;10522;52.198;9.890;2023-03-11T01:40:34;5.77;;;3.60;;
20721;SDS011;10522;52.198;9.890;2023-03-11T01:43:02;5.77;;;3.50;;
20721;SDS011;10522;52.198;9.890;2023-03-11T01:45:40;8.87;;;4.63;;
20721;SDS011;10522;52.198;9.890;2023-03-11T01:48:26;6.07;;;3.77;;
20721;SDS011;10522;52.198;9.890;2023-03-11T01:50:52;4.63;;;3.07;;
20721;SDS011;10522;52.198;9.890;2023-03-11T01:53:18;5.73;;;3.63;;
20721;SDS011;10522;52.198;9.890;2023-03-11T01:55:45;7.73;;;5.00;;
20721;SDS011;10522;52.198;9.890;2023-03-11T01:58:13;6.03;;;3.83;;
20721;SDS011;10522;52.198;9.890;2023-03-11T02:00:43;7.17;;;3.90;;
20721;SDS011;10522;52.198;9.890;2023-03-11T02:03:52;6.27;;;4.30;;
20721;SDS011;10522;52.198;9.890;2023-03-11T02:06:02;6.33;;;3.80;;
20721;SDS011;10522;52.198;9.890;2023-03-11T02:08:31;5.80;;;3.63;;
20721;SDS011;10522;52.198;9.890;2023-03-11T02:11:00;6.07;;;3.93;;
20721;SDS011;10522;52.198;9.890;2023-03-11T02:13:27;3.80;;;2.27;;
20721;SDS011;10522;52.198;9.890;2023-03-11T02:15:53;7.77;;;4.00;;
20721;SDS011;10522;52.198;9.890;2023-03-11T02:18:19;9.10;;;3.67;;
20721;SDS011;10522;52.198;9.890;2023-03-11T02:20:51;5.27;;;3.43;;
20721;SDS011;10522;52.198;9.890;2023-03-11T02:23:32;4.87;;;3.00;;
20721;SDS011;10522;52.198;9.890;2023-03-11T02:26:19;4.07;;;3.27;;
20721;SDS011;10522;52.198;9.890;2023-03-11T02:29:06;5.90;;;3.30;;
20721;SDS011;10522;52.198;9.890;2023-03-11T02:31:35;5.07;;;3.57;;
20721;SDS011;10522;52.198;9.890;2023-03-11T02:34:03;5.90;;;3.33;;
20721;SDS011;10522;52.198;9.890;2023-03-11T02:36:33;8.83;;;3.70;;
20721;SDS011;10522;52.198;9.890;2023-03-11T02:39:01;6.43;;;3.43;;
20721;SDS011;10522;52.198;9.890;2023-03-11T02:41:28;11.33;;;4.00;;
20721;SDS011;10522;52.198;9.890;2023-03-11T02:43:55;5.90;;;3.87;;
20721;SDS011;10522;52.198;9.890;2023-03-11T02:46:22;5.60;;;3.80;;
20721;SDS011;10522;52.198;9.890;2023-03-11T02:48:47;8.43;;;4.40;;
20721;SDS011;10522;52.198;9.890;2023-03-11T02:51:14;4.57;;;3.50;;
20721;SDS011;10522;52.198;9.890;2023-03-11T02:53:43;4.27;;;2.90;;
20721;SDS011;10522;52.198;9.890;2023-03-11T02:56:13;11.07;;;4.07;;
20721;SDS011;10522;52.198;9.890;2023-03-11T02:58:38;5.30;;;3.50;;
20721;SDS011;10522;52.198;9.890;2023-03-11T03:01:04;4.70;;;3.00;;
20721;SDS011;10522;52.198;9.890;2023-03-11T03:03:30;3.83;;;2.17;;
20721;SDS011;10522;52.198;9.890;2023-03-11T03:05:55;3.90;;;2.80;;
20721;SDS011;10522;52.198;9.890;2023-03-11T03:08:21;7.73;;;3.20;;
20721;SDS011;10522;52.198;9.890;2023-03-11T03:10:46;7.43;;;3.83;;
20721;SDS011;10522;52.198;9.890;2023-03-11T03:13:12;5.23;;;3.63;;
20721;SDS011;10522;52.198;9.890;2023-03-11T03:15:38;5.57;;;3.37;;
20721;SDS011;10522;52.198;9.890;2023-03-11T03:18:03;9.50;;;4.97;;
20721;SDS011;10522;52.198;9.890;2023-03-11T03:20:29;7.73;;;4.17;;
20721;SDS011;10522;52.198;9.890;2023-03-11T03:22:54;5.73;;;3.33;;
20721;SDS011;10522;52.198;9.890;2023-03-11T03:25:21;9.77;;;3.83;;
20721;SDS011;10522;52.198;9.890;2023-03-11T03:27:47;8.63;;;3.33;;
20721;SDS011;10522;52.198;9.890;2023-03-11T03:30:13;4.50;;;3.17;;
20721;SDS011;10522;52.198;9.890;2023-03-11T03:32:39;5.53;;;3.60;;
20721;SDS011;10522;52.198;9.890;2023-03-11T03:35:05;4.17;;;3.27;;
20721;SDS011;10522;52.198;9.890;2023-03-11T03:37:32;8.00;;;3.33;;
20721;SDS011;10522;52.198;9.890;2023-03-11T03:39:58;10.83;;;3.73;;
20721;SDS011;10522;52.198;9.890;2023-03-11T03:42:24;6.63;;;3.17;;
20721;SDS011;10522;52.198;9.890;2023-03-11T03:44:51;7.80;;;3.17;;
20721;SDS011;10522;52.198;9.890;2023-03-11T03:47:17;4.53;;;2.77;;
20721;SDS011;10522;52.198;9.890;2023-03-11T03:49:43;3.30;;;2.20;;
20721;SDS011;10522;52.198;9.890;2023-03-11T03:52:09;7.20;;;3.53;;
20721;SDS011;10522;52.198;9.890;2023-03-11T03:54:35;4.97;;;2.53;;
20721;SDS011;10522;52.198;9.890;2023-03-11T03:57:01;5.70;;;3.83;;
20721;SDS011;10522;52.198;9.890;2023-03-11T03:59:28;4.33;;;3.30;;
20721;SDS011;10522;52.198;9.890;2023-03-11T04:01:53;7.00;;;2.50;;
20721;SDS011;10522;52.198;9.890;2023-03-11T04:04:19;4.63;;;3.03;;
20721;SDS011;10522;52.198;9.890;2023-03-11T04:06:45;6.30;;;3.40;;
20721;SDS011;10522;52.198;9.890;2023-03-11T04:09:11;5.40;;;2.83;;
20721;SDS011;10522;52.198;9.890;2023-03-11T04:11:36;4.17;;;2.43;;
20721;SDS011;10522;52.198;9.890;2023-03-11T04:14:03;2.70;;;1.97;;
20721;SDS011;10522;52.198;9.890;2023-03-11T04:16:29;6.60;;;2.73;;
20721;SDS011;10522;52.198;9.890;2023-03-11T04:18:55;5.30;;;2.60;;
20721;SDS011;10522;52.198;9.890;2023-03-11T04:21:21;2.43;;;2.20;;
20721;SDS011;10522;52.198;9.890;2023-03-11T04:23:46;12.50;;;2.53;;
20721;SDS011;10522;52.198;9.890;2023-03-11T04:26:12;2.97;;;1.90;;
20721;SDS011;10522;52.198;9.890;2023-03-11T04:28:37;6.00;;;2.53;;
20721;SDS011;10522;52.198;9.890;2023-03-11T04:31:03;13.60;;;3.00;;
20721;SDS011;10522;52.198;9.890;2023-03-11T04:33:29;2.03;;;1.83;;
20721;SDS011;10522;52.198;9.890;2023-03-11T04:35:55;4.23;;;2.17;;
20721;SDS011;10522;52.198;9.890;2023-03-11T04:38:21;7.53;;;2.43;;
20721;SDS011;10522;52.198;9.890;2023-03-11T04:40:46;8.30;;;2.13;;
20721;SDS011;10522;52.198;9.890;2023-03-11T04:43:12;5.07;;;2.87;;
20721;SDS011;10522;52.198;9.890;2023-03-11T04:45:38;6.37;;;2.90;;
20721;SDS011;10522;52.198;9.890;2023-03-11T04:48:04;9.50;;;3.33;;
20721;SDS011;10522;52.198;9.890;2023-03-11T04:50:30;5.33;;;2.23;;
20721;SDS011;10522;52.198;9.890;2023-03-11T04:52:55;6.37;;;1.80;;
20721;SDS011;10522;52.198;9.890;2023-03-11T04:55:21;9.07;;;3.03;;
20721;SDS011;10522;52.198;9.890;2023-03-11T04:57:46;5.73;;;2.20;;
20721;SDS011;10522;52.198;9.890;2023-03-11T05:00:12;6.13;;;2.90;;
20721;SDS011;10522;52.198;9.890;2023-03-11T05:02:40;5.07;;;2.70;;
20721;SDS011;10522;52.198;9.890;2023-03-11T05:05:06;8.07;;;2.30;;
20721;SDS011;10522;52.198;9.890;2023-03-11T05:07:32;4.23;;;2.33;;
20721;SDS011;10522;52.198;9.890;2023-03-11T05:09:58;6.83;;;2.97;;
20721;SDS011;10522;52.198;9.890;2023-03-11T05:12:24;6.73;;;2.53;;
20721;SDS011;10522;52.198;9.890;2023-03-11T05:14:50;2.30;;;1.73;;
20721;SDS011;10522;52.198;9.890;2023-03-11T05:17:15;5.33;;;2.40;;
20721;SDS011;10522;52.198;9.890;2023-03-11T05:19:43;3.80;;;1.57;;
20721;SDS011;10522;52.198;9.890;2023-03-11T05:22:09;5.37;;;1.63;;
20721;SDS011;10522;52.198;9.890;2023-03-11T05:24:34;2.50;;;1.60;;
20721;SDS011;10522;52.198;9.890;2023-03-11T05:27:00;2.23;;;1.60;;
20721;SDS011;10522;52.198;9.890;2023-03-11T05:29:26;6.13;;;1.97;;
20721;SDS011;10522;52.198;9.890;2023-03-11T05:31:52;5.10;;;1.67;;
20721;SDS011;10522;52.198;9.890;2023-03-11T05:34:18;3.37;;;1.80;;
20721;SDS011;10522;52.198;9.890;2023-03-11T05:36:43;2.73;;;1.57;;
20721;SDS011;10522;52.198;9.890;2023-03-11T05:39:09;6.03;;;2.20;;
20721;SDS011;10522;52.198;9.890;2023-03-11T05:41:35;5.47;;;2.23;;
20721;SDS011;10522;52.198;9.890;2023-03-11T05:44:01;6.20;;;2.23;;
20721;SDS011;10522;52.198;9.890;2023-03-11T05:46:26;10.20;;;2.43;;
20721;SDS011;10522;52.198;9.890;2023-03-11T05:48:52;7.20;;;2.03;;
20721;SDS011;10522;52.198;9.890;2023-03-11T05:51:18;2.47;;;1.27;;
20721;SDS011;10522;52.198;9.890;2023-03-11T05:53:44;3.80;;;1.77;;
20721;SDS011;10522;52.198;9.890;2023-03-11T05:56:16;10.37;;;2.63;;
20721;SDS011;10522;52.198;9.890;2023-03-11T05:58:43;3.60;;;2.03;;
20721;SDS011;10522;52.198;9.890;2023-03-11T06:01:09;4.43;;;2.10;;
20721;SDS011;10522;52.198;9.890;2023-03-11T06:03:37;6.63;;;1.83;;
20721;SDS011;10522;52.198;9.890;2023-03-11T06:06:03;9.17;;;1.93;;
20721;SDS011;10522;52.198;9.890;2023-03-11T06:08:30;5.50;;;2.10;;
20721;SDS011;10522;52.198;9.890;2023-03-11T06:11:05;6.60;;;1.77;;
20721;SDS011;10522;52.198;9.890;2023-03-11T06:13:33;4.60;;;2.10;;
20721;SDS011;10522;52.198;9.890;2023-03-11T06:15:58;4.10;;;2.17;;
20721;SDS011;10522;52.198;9.890;2023-03-11T06:18:24;6.30;;;1.40;;
20721;SDS011;10522;52.198;9.890;2023-03-11T06:20:51;3.33;;;1.20;;
20721;SDS011;10522;52.198;9.890;2023-03-11T06:23:17;1.80;;;1.33;;
20721;SDS011;10522;52.198;9.890;2023-03-11T06:25:43;9.50;;;3.43;;
20721;SDS011;10522;52.198;9.890;2023-03-11T06:28:18;2.03;;;1.50;;
20721;SDS011;10522;52.198;9.890;2023-03-11T06:30:44;3.30;;;1.23;;
20721;SDS011;10522;52.198;9.890;2023-03-11T06:33:09;2.67;;;1.50;;
20721;SDS011;10522;52.198;9.890;2023-03-11T06:35:35;5.87;;;1.50;;
20721;SDS011;10522;52.198;9.890;2023-03-11T06:38:00;5.00;;;2.03;;
20721;SDS011;10522;52.198;9.890;2023-03-11T06:40:26;2.63;;;1.63;;
20721;SDS011;10522;52.198;9.890;2023-03-11T06:42:52;0.83;;;0.77;;
20721;SDS011;10522;52.198;9.890;2023-03-11T06:45:17;7.10;;;1.73;;
20721;SDS011;10522;52.198;9.890;2023-03-11T06:47:43;3.60;;;1.63;;
20721;SDS011;10522;52.198;9.890;2023-03-11T06:50:09;2.00;;;1.13;;
20721;SDS011;10522;52.198;9.890;2023-03-11T06:52:35;4.60;;;1.43;;
20721;SDS011;10522;52.198;9.890;2023-03-11T06:55:00;2.03;;;1.43;;
20721;SDS011;10522;52.198;9.890;2023-03-11T06:57:27;4.20;;;1.60;;
20721;SDS011;10522;52.198;9.890;2023-03-11T06:59:54;5.67;;;1.30;;
20721;SDS011;10522;52.198;9.890;2023-03-11T07:02:20;3.13;;;1.77;;
20721;SDS011;10522;52.198;9.890;2023-03-11T07:04:49;6.73;;;1.50;;
20721;SDS011;10522;52.198;9.890;2023-03-11T07:07:15;4.37;;;1.30;;
20721;SDS011;10522;52.198;9.890;2023-03-11T07:09:41;3.63;;;1.20;;
20721;SDS011;10522;52.198;9.890;2023-03-11T07:12:07;5.20;;;1.43;;
20721;SDS011;10522;52.198;9.890;2023-03-11T07:14:33;4.00;;;1.33;;
20721;SDS011;10522;52.198;9.890;2023-03-11T07:16:58;7.63;;;1.70;;
20721;SDS011;10522;52.198;9.890;2023-03-11T07:19:24;1.93;;;1.40;;
20721;SDS011;10522;52.198;9.890;2023-03-11T07:21:50;1.37;;;1.13;;
20721;SDS011;10522;52.198;9.890;2023-03-11T07:24:15;8.00;;;1.30;;
20721;SDS011;10522;52.198;9.890;2023-03-11T07:26:41;3.77;;;1.60;;
20721;SDS011;10522;52.198;9.890;2023-03-11T07:29:07;5.83;;;1.73;;
20721;SDS011;10522;52.198;9.890;2023-03-11T07:31:33;5.40;;;1.43;;
20721;SDS011;10522;52.198;9.890;2023-03-11T07:34:00;7.50;;;1.07;;
20721;SDS011;10522;52.198;9.890;2023-03-11T07:36:28;4.33;;;1.67;;
20721;SDS011;10522;52.198;9.890;2023-03-11T07:38:55;8.73;;;1.23;;
20721;SDS011;10522;52.198;9.890;2023-03-11T07:41:27;4.70;;;1.40;;
20721;SDS011;10522;52.198;9.890;2023-03-11T07:43:54;4.10;;;0.97;;
20721;SDS011;10522;52.198;9.890;2023-03-11T07:46:21;11.83;;;1.50;;
20721;SDS011;10522;52.198;9.890;2023-03-11T07:48:49;2.40;;;1.20;;
20721;SDS011;10522;52.198;9.890;2023-03-11T07:51:16;5.43;;;1.20;;
20721;SDS011;10522;52.198;9.890;2023-03-11T07:53:47;2.43;;;1.20;;
20721;SDS011;10522;52.198;9.890;2023-03-11T07:56:14;6.73;;;1.70;;
20721;SDS011;10522;52.198;9.890;2023-03-11T07:58:41;7.10;;;1.67;;
20721;SDS011;10522;52.198;9.890;2023-03-11T08:01:07;2.47;;;1.23;;
20721;SDS011;10522;52.198;9.890;2023-03-11T08:03:34;3.93;;;1.17;;
20721;SDS011;10522;52.198;9.890;2023-03-11T08:06:01;3.47;;;1.50;;
20721;SDS011;10522;52.198;9.890;2023-03-11T08:08:28;4.83;;;1.50;;
20721;SDS011;10522;52.198;9.890;2023-03-11T08:10:54;6.40;;;2.27;;
20721;SDS011;10522;52.198;9.890;2023-03-11T08:13:20;2.87;;;1.50;;
20721;SDS011;10522;52.198;9.890;2023-03-11T08:15:45;5.40;;;1.93;;
20721;SDS011;10522;52.198;9.890;2023-03-11T08:18:11;1.30;;;1.17;;
20721;SDS011;10522;52.198;9.890;2023-03-11T08:20:37;2.97;;;1.10;;
20721;SDS011;10522;52.198;9.890;2023-03-11T08:23:03;6.77;;;1.73;;
20721;SDS011;10522;52.198;9.890;2023-03-11T08:25:29;5.70;;;1.37;;
20721;SDS011;10522;52.198;9.890;2023-03-11T08:27:55;2.10;;;1.63;;
20721;SDS011;10522;52.198;9.890;2023-03-11T08:30:21;1.97;;;1.37;;
20721;SDS011;10522;52.198;9.890;2023-03-11T08:32:47;6.30;;;1.73;;
20721;SDS011;10522;52.198;9.890;2023-03-11T08:35:13;1.57;;;1.00;;
20721;SDS011;10522;52.198;9.890;2023-03-11T08:37:39;3.00;;;1.37;;
20721;SDS011;10522;52.198;9.890;2023-03-11T08:40:05;3.87;;;1.67;;
20721;SDS011;10522;52.198;9.890;2023-03-11T08:42:31;5.50;;;1.60;;
20721;SDS011;10522;52.198;9.890;2023-03-11T08:44:57;6.20;;;1.57;;
20721;SDS011;10522;52.198;9.890;2023-03-11T08:47:23;2.10;;;1.10;;
20721;SDS011;10522;52.198;9.890;2023-03-11T08:49:48;5.90;;;1.83;;
20721;SDS011;10522;52.198;9.890;2023-03-11T08:52:14;4.63;;;1.17;;
20721;SDS011;10522;52.198;9.890;2023-03-11T08:54:39;6.23;;;2.13;;
20721;SDS011;10522;52.198;9.890;2023-03-11T08:57:06;4.23;;;1.80;;
20721;SDS011;10522;52.198;9.890;2023-03-11T08:59:32;4.63;;;1.50;;
20721;SDS011;10522;52.198;9.890;2023-03-11T09:01:57;6.27;;;1.60;;
20721;SDS011;10522;52.198;9.890;2023-03-11T09:04:23;9.53;;;1.93;;
20721;SDS011;10522;52.198;9.890;2023-03-11T09:06:49;2.00;;;1.53;;
20721;SDS011;10522;52.198;9.890;2023-03-11T09:09:14;6.70;;;1.83;;
20721;SDS011;10522;52.198;9.890;2023-03-11T09:11:41;3.90;;;1.13;;
20721;SDS011;10522;52.198;9.890;2023-03-11T09:14:06;7.27;;;2.00;;
20721;SDS011;10522;52.198;9.890;2023-03-11T09:16:32;3.63;;;1.60;;
20721;SDS011;10522;52.198;9.890;2023-03-11T09:18:58;1.37;;;1.27;;
20721;SDS011;10522;52.198;9.890;2023-03-11T09:21:30;5.57;;;1.57;;
20721;SDS011;10522;52.198;9.890;2023-03-11T09:24:00;3.90;;;1.77;;
20721;SDS011;10522;52.198;9.890;2023-03-11T09:26:25;1.63;;;1.40;;
20721;SDS011;10522;52.198;9.890;2023-03-11T09:28:51;4.60;;;1.73;;
20721;SDS011;10522;52.198;9.890;2023-03-11T09:31:17;2.50;;;1.27;;
20721;SDS011;10522;52.198;9.890;2023-03-11T09:33:43;4.83;;;1.70;;
20721;SDS011;10522;52.198;9.890;2023-03-11T09:36:11;3.43;;;1.40;;
20721;SDS011;10522;52.198;9.890;2023-03-11T09:38:42;4.90;;;1.50;;
20721;SDS011;10522;52.198;9.890;2023-03-11T09:43:54;4.57;;;1.53;;
20721;SDS011;10522;52.198;9.890;2023-03-11T09:49:44;4.17;;;1.90;;
20721;SDS011;10522;52.198;9.890;2023-03-11T09:55:20;2.17;;;1.50;;
20721;SDS011;10522;52.198;9.890;2023-03-11T09:57:54;5.70;;;1.10;;
20721;SDS011;10522;52.198;9.890;2023-03-11T10:00:22;8.83;;;2.47;;
20721;SDS011;10522;52.198;9.890;2023-03-11T10:02:49;4.47;;;1.73;;
20721;SDS011;10522;52.198;9.890;2023-03-11T10:05:48;13.00;;;2.30;;
20721;SDS011;10522;52.198;9.890;2023-03-11T10:08:31;4.87;;;1.40;;
20721;SDS011;10522;52.198;9.890;2023-03-11T10:16:47;5.43;;;3.27;;
20721;SDS011;10522;52.198;9.890;2023-03-11T10:19:22;8.03;;;1.87;;
20721;SDS011;10522;52.198;9.890;2023-03-11T10:25:06;2.00;;;1.13;;
20721;SDS011;10522;52.198;9.890;2023-03-11T10:27:39;5.13;;;1.40;;
20721;SDS011;10522;52.198;9.890;2023-03-11T10:30:27;5.80;;;2.13;;
20721;SDS011;10522;52.198;9.890;2023-03-11T10:33:10;2.93;;;1.67;;
20721;SDS011;10522;52.198;9.890;2023-03-11T10:35:41;5.73;;;1.30;;
20721;SDS011;10522;52.198;9.890;2023-03-11T10:38:12;9.27;;;2.00;;
20721;SDS011;10522;52.198;9.890;2023-03-11T10:40:42;3.77;;;1.30;;
20721;SDS011;10522;52.198;9.890;2023-03-11T10:46:26;2.57;;;1.40;;
20721;SDS011;10522;52.198;9.890;2023-03-11T10:48:54;2.27;;;1.77;;
20721;SDS011;10522;52.198;9.890;2023-03-11T10:51:21;4.30;;;1.80;;
20721;SDS011;10522;52.198;9.890;2023-03-11T10:53:51;5.47;;;1.60;;
20721;SDS011;10522;52.198;9.890;2023-03-11T10:56:32;9.77;;;2.13;;
20721;SDS011;10522;52.198;9.890;2023-03-11T10:59:03;5.53;;;1.80;;
20721;SDS011;10522;52.198;9.890;2023-03-11T11:01:58;3.13;;;1.60;;
20721;SDS011;10522;52.198;9.890;2023-03-11T11:07:32;2.67;;;1.63;;
20721;SDS011;10522;52.198;9.890;2023-03-11T11:13:00;3.20;;;2.00;;
20721;SDS011;10522;52.198;9.890;2023-03-11T11:15:41;3.03;;;1.80;;
20721;SDS011;10522;52.198;9.890;2023-03-11T11:18:53;2.60;;;1.30;;
20721;SDS011;10522;52.198;9.890;2023-03-11T11:21:31;5.10;;;1.47;;
20721;SDS011;10522;52.198;9.890;2023-03-11T11:26:29;4.47;;;1.60;;
20721;SDS011;10522;52.198;9.890;2023-03-11T11:31:41;4.20;;;1.20;;
20721;SDS011;10522;52.198;9.890;2023-03-11T11:34:26;5.57;;;1.60;;
20721;SDS011;10522;52.198;9.890;2023-03-11T11:36:57;12.97;;;1.70;;
20721;SDS011;10522;52.198;9.890;2023-03-11T11:39:26;8.37;;;2.10;;
20721;SDS011;10522;52.198;9.890;2023-03-11T11:41:56;5.23;;;2.00;;
20721;SDS011;10522;52.198;9.890;2023-03-11T11:44:27;4.20;;;2.23;;
20721;SDS011;10522;52.198;9.890;2023-03-11T11:46:59;4.80;;;1.50;;
20721;SDS011;10522;52.198;9.890;2023-03-11T11:49:34;1.50;;;1.40;;
20721;SDS011;10522;52.198;9.890;2023-03-11T11:52:05;6.67;;;2.20;;
20721;SDS011;10522;52.198;9.890;2023-03-11T11:54:39;2.60;;;1.63;;
20721;SDS011;10522;52.198;9.890;2023-03-11T11:57:17;7.30;;;1.50;;
20721;SDS011;10522;52.198;9.890;2023-03-11T11:59:45;2.30;;;1.97;;
20721;SDS011;10522;52.198;9.890;2023-03-11T12:15:44;2.53;;;1.17;;
20721;SDS011;10522;52.198;9.890;2023-03-11T12:18:43;8.47;;;1.20;;
20721;SDS011;10522;52.198;9.890;2023-03-11T12:24:14;3.43;;;1.10;;
20721;SDS011;10522;52.198;9.890;2023-03-11T12:27:07;4.50;;;0.90;;
20721;SDS011;10522;52.198;9.890;2023-03-11T12:29:47;4.97;;;1.20;;
20721;SDS011;10522;52.198;9.890;2023-03-11T12:32:37;5.77;;;1.30;;
20721;SDS011;10522;52.198;9.890;2023-03-11T12:35:17;2.23;;;1.13;;
20721;SDS011;10522;52.198;9.890;2023-03-11T12:37:54;4.17;;;1.00;;
20721;SDS011;10522;52.198;9.890;2023-03-11T12:43:22;3.30;;;1.03;;
20721;SDS011;10522;52.198;9.890;2023-03-11T12:45:49;7.13;;;1.37;;
20721;SDS011;10522;52.198;9.890;2023-03-11T12:50:54;1.77;;;0.87;;
20721;SDS011;10522;52.198;9.890;2023-03-11T12:53:32;6.13;;;1.20;;
20721;SDS011;10522;52.198;9.890;2023-03-11T12:56:30;2.27;;;1.00;;
20721;SDS011;10522;52.198;9.890;2023-03-11T13:01:49;3.43;;;0.90;;
20721;SDS011;10522;52.198;9.890;2023-03-11T13:05:09;5.87;;;1.43;;
20721;SDS011;10522;52.198;9.890;2023-03-11T13:07:47;5.03;;;1.07;;
20721;SDS011;10522;52.198;9.890;2023-03-11T13:10:38;5.80;;;1.00;;
20721;SDS011;10522;52.198;9.890;2023-03-11T13:15:49;1.07;;;1.00;;
20721;SDS011;10522;52.198;9.890;2023-03-11T13:18:23;2.77;;;1.00;;
20721;SDS011;10522;52.198;9.890;2023-03-11T13:20:51;0.77;;;0.60;;
20721;SDS011;10522;52.198;9.890;2023-03-11T13:33:44;2.40;;;1.00;;
20721;SDS011;10522;52.198;9.890;2023-03-11T13:42:16;3.60;;;1.10;;
20721;SDS011;10522;52.198;9.890;2023-03-11T13:44:50;2.93;;;0.87;;
20721;SDS011;10522;52.198;9.890;2023-03-11T13:47:16;3.67;;;0.83;;
20721;SDS011;10522;52.198;9.890;2023-03-11T13:49:59;1.27;;;1.00;;
20721;SDS011;10522;52.198;9.890;2023-03-11T13:53:05;5.83;;;0.90;;
20721;SDS011;10522;52.198;9.890;2023-03-11T13:55:34;4.17;;;1.73;;
20721;SDS011;10522;52.198;9.890;2023-03-11T14:00:49;3.07;;;0.77;;
20721;SDS011;10522;52.198;9.890;2023-03-11T14:03:18;3.07;;;0.97;;
20721;SDS011;10522;52.198;9.890;2023-03-11T14:05:46;4.50;;;0.90;;
20721;SDS011;10522;52.198;9.890;2023-03-11T14:08:20;2.37;;;1.20;;
20721;SDS011;10522;52.198;9.890;2023-03-11T14:10:59;6.57;;;1.23;;
20721;SDS011;10522;52.198;9.890;2023-03-11T14:13:26;2.03;;;0.80;;
20721;SDS011;10522;52.198;9.890;2023-03-11T14:16:04;3.43;;;1.03;;
20721;SDS011;10522;52.198;9.890;2023-03-11T14:18:43;3.83;;;0.80;;
20721;SDS011;10522;52.198;9.890;2023-03-11T14:21:11;4.73;;;0.90;;
20721;SDS011;10522;52.198;9.890;2023-03-11T14:23:47;3.97;;;1.17;;
20721;SDS011;10522;52.198;9.890;2023-03-11T14:26:21;1.50;;;0.73;;
20721;SDS011;10522;52.198;9.890;2023-03-11T14:28:53;4.13;;;1.03;;
20721;SDS011;10522;52.198;9.890;2023-03-11T14:31:28;4.43;;;0.70;;
20721;SDS011;10522;52.198;9.890;2023-03-11T14:39:22;6.57;;;1.00;;
20721;SDS011;10522;52.198;9.890;2023-03-11T14:42:34;5.00;;;0.80;;
20721;SDS011;10522;52.198;9.890;2023-03-11T14:44:50;3.73;;;1.70;;
20721;SDS011;10522;52.198;9.890;2023-03-11T14:47:32;2.00;;;0.60;;
20721;SDS011;10522;52.198;9.890;2023-03-11T14:50:11;4.20;;;0.90;;
20721;SDS011;10522;52.198;9.890;2023-03-11T14:52:47;2.17;;;1.13;;
20721;SDS011;10522;52.198;9.890;2023-03-11T14:55:22;1.67;;;0.80;;
20721;SDS011;10522;52.198;9.890;2023-03-11T14:58:04;3.13;;;0.80;;
20721;SDS011;10522;52.198;9.890;2023-03-11T15:00:54;4.43;;;1.23;;
20721;SDS011;10522;52.198;9.890;2023-03-11T15:03:28;1.90;;;1.00;;
20721;SDS011;10522;52.198;9.890;2023-03-11T15:08:33;2.83;;;0.93;;
20721;SDS011;10522;52.198;9.890;2023-03-11T15:13:38;3.03;;;1.00;;
20721;SDS011;10522;52.198;9.890;2023-03-11T15:16:06;3.10;;;0.80;;
20721;SDS011;10522;52.198;9.890;2023-03-11T15:18:45;5.60;;;0.87;;
20721;SDS011;10522;52.198;9.890;2023-03-11T15:21:12;1.97;;;1.03;;
20721;SDS011;10522;52.198;9.890;2023-03-11T15:24:14;4.43;;;0.53;;
20721;SDS011;10522;52.198;9.890;2023-03-11T15:26:41;1.50;;;0.90;;
20721;SDS011;10522;52.198;9.890;2023-03-11T15:29:18;1.37;;;0.70;;
20721;SDS011;10522;52.198;9.890;2023-03-11T15:31:45;3.33;;;0.70;;
20721;SDS011;10522;52.198;9.890;2023-03-11T15:36:44;2.13;;;0.70;;
20721;SDS011;10522;52.198;9.890;2023-03-11T15:44:33;1.43;;;0.50;;
20721;SDS011;10522;52.198;9.890;2023-03-11T15:47:04;5.67;;;1.00;;
20721;SDS011;10522;52.198;9.890;2023-03-11T15:49:30;1.00;;;0.67;;
20721;SDS011;10522;52.198;9.890;2023-03-11T15:51:59;2.73;;;1.13;;
20721;SDS011;10522;52.198;9.890;2023-03-11T15:54:25;1.60;;;0.73;;
20721;SDS011;10522;52.198;9.890;2023-03-11T15:56:51;2.07;;;0.70;;
20721;SDS011;10522;52.198;9.890;2023-03-11T15:59:19;2.77;;;0.80;;
20721;SDS011;10522;52.198;9.890;2023-03-11T16:01:45;5.93;;;0.90;;
20721;SDS011;10522;52.198;9.890;2023-03-11T16:04:15;4.13;;;1.10;;
20721;SDS011;10522;52.198;9.890;2023-03-11T16:06:42;2.40;;;1.50;;
20721;SDS011;10522;52.198;9.890;2023-03-11T16:09:09;3.97;;;0.80;;
20721;SDS011;10522;52.198;9.890;2023-03-11T16:11:35;3.17;;;0.70;;
20721;SDS011;10522;52.198;9.890;2023-03-11T16:14:01;2.60;;;1.10;;
20721;SDS011;10522;52.198;9.890;2023-03-11T16:16:27;6.33;;;0.93;;
20721;SDS011;10522;52.198;9.890;2023-03-11T16:18:53;2.80;;;0.80;;
20721;SDS011;10522;52.198;9.890;2023-03-11T16:21:20;2.50;;;0.73;;
20721;SDS011;10522;52.198;9.890;2023-03-11T16:23:47;6.20;;;0.87;;
20721;SDS011;10522;52.198;9.890;2023-03-11T16:26:13;4.83;;;0.70;;
20721;SDS011;10522;52.198;9.890;2023-03-11T16:28:40;0.90;;;0.70;;
20721;SDS011;10522;52.198;9.890;2023-03-11T16:31:06;3.03;;;0.87;;
20721;SDS011;10522;52.198;9.890;2023-03-11T16:33:35;4.17;;;1.13;;
20721;SDS011;10522;52.198;9.890;2023-03-11T16:36:01;0.90;;;0.70;;